createdAt,value
2019-04-30T00:00:58.230Z,0.8
2019-04-30T00:01:58.982Z,0.8
2019-04-30T00:02:58.286Z,0.9
2019-04-30T00:03:59.353Z,0.6
2019-04-30T00:04:58.335Z,0.8
2019-04-30T00:05:58.525Z,0.7
2019-04-30T00:06:58.243Z,0.7
2019-04-30T00:07:58.783Z,1.0
2019-04-30T00:08:58.311Z,0.7
2019-04-30T00:09:58.683Z,0.7
2019-04-30T00:10:58.674Z,0.7
2019-04-30T00:12:01.167Z,0.8
2019-04-30T00:12:58.285Z,0.8
2019-04-30T00:13:58.848Z,0.6
2019-04-30T00:14:58.256Z,0.6
2019-04-30T00:16:01.538Z,1.1
2019-04-30T00:16:58.258Z,0.7
2019-04-30T00:18:01.642Z,0.7
2019-04-30T00:19:00.747Z,0.6
2019-04-30T00:19:59.957Z,0.7
2019-04-30T00:20:58.250Z,0.8
2019-04-30T00:22:00.491Z,0.8
2019-04-30T00:22:58.270Z,0.8
2019-04-30T00:24:00.667Z,0.7
2019-04-30T00:24:58.468Z,0.7
2019-04-30T00:26:05.197Z,0.8
2019-04-30T00:26:58.710Z,0.7
2019-04-30T00:28:00.305Z,1.4
2019-04-30T00:28:58.430Z,0.6
2019-04-30T00:30:00.248Z,0.7
2019-04-30T00:30:58.542Z,1.0
2019-04-30T00:32:04.142Z,0.7
2019-04-30T00:32:58.676Z,1.0
2019-04-30T00:34:01.276Z,0.7
2019-04-30T00:34:58.302Z,0.8
2019-04-30T00:35:58.382Z,0.7
2019-04-30T00:36:58.503Z,0.6
2019-04-30T00:38:00.101Z,0.8
2019-04-30T00:38:58.537Z,0.7
2019-04-30T00:39:58.491Z,0.7
2019-04-30T00:41:01.781Z,0.8
2019-04-30T00:41:58.378Z,1.0
2019-04-30T00:43:00.070Z,1.4
2019-04-30T00:43:58.572Z,0.9
2019-04-30T00:44:59.512Z,1.0
2019-04-30T00:45:58.775Z,0.7
2019-04-30T00:47:00.484Z,0.8
2019-04-30T00:47:58.567Z,0.8
2019-04-30T00:49:08.540Z,1.2
2019-04-30T00:50:00.166Z,0.7
2019-04-30T00:50:58.377Z,0.6
2019-04-30T00:51:58.909Z,1.3
2019-04-30T00:52:58.579Z,0.7
2019-04-30T00:53:58.370Z,0.7
2019-04-30T00:55:00.434Z,0.7
2019-04-30T00:55:58.795Z,0.7
2019-04-30T00:57:03.771Z,0.8
2019-04-30T00:57:58.688Z,1.2
2019-04-30T00:59:02.307Z,1.1
2019-04-30T00:59:58.365Z,0.8
2019-04-30T01:00:59.658Z,1.0
2019-04-30T01:01:58.273Z,0.9
2019-04-30T01:03:00.730Z,0.9
2019-04-30T01:03:58.313Z,0.9
2019-04-30T01:05:05.065Z,0.9
2019-04-30T01:05:58.755Z,1.1
2019-04-30T01:07:00.137Z,1.0
2019-04-30T01:09:10.741Z,1.2
2019-04-30T01:10:10.356Z,1.2
2019-04-30T01:11:10.379Z,1.0
2019-04-30T01:12:10.335Z,1.2
2019-04-30T01:13:11.901Z,1.1
2019-04-30T01:14:10.727Z,1.3
2019-04-30T01:15:14.243Z,1.3
2019-04-30T01:16:10.346Z,1.1
2019-04-30T01:17:12.163Z,1.2
2019-04-30T01:18:10.340Z,1.3
2019-04-30T01:19:26.563Z,2.1
2019-04-30T01:20:10.330Z,1.4
2019-04-30T01:21:11.197Z,1.4
2019-04-30T01:22:10.543Z,1.4
2019-04-30T01:23:11.246Z,1.4
2019-04-30T01:24:10.537Z,1.3
2019-04-30T01:25:13.327Z,1.5
2019-04-30T01:26:10.574Z,1.4
2019-04-30T01:27:10.877Z,1.4
2019-04-30T01:28:10.737Z,1.5
2019-04-30T01:29:10.416Z,1.5
2019-04-30T01:30:13.177Z,1.6
2019-04-30T01:31:10.386Z,1.5
2019-04-30T01:32:16.688Z,1.5
2019-04-30T01:33:10.837Z,1.4
2019-04-30T01:34:13.919Z,1.5
2019-04-30T01:35:10.769Z,1.6
2019-04-30T01:36:13.210Z,1.6
2019-04-30T01:37:10.557Z,1.5
2019-04-30T01:38:12.460Z,1.4
2019-04-30T01:39:10.798Z,1.6
2019-04-30T01:40:13.823Z,1.4
2019-04-30T01:41:10.562Z,1.8
2019-04-30T01:42:11.415Z,1.5
2019-04-30T01:43:10.809Z,1.7
2019-04-30T01:44:11.916Z,1.5
2019-04-30T01:45:10.351Z,1.9
2019-04-30T01:46:13.718Z,1.7
2019-04-30T01:47:10.589Z,1.6
2019-04-30T01:48:12.552Z,1.9
2019-04-30T01:49:10.773Z,2.0
2019-04-30T01:50:10.629Z,1.8
2019-04-30T01:51:13.238Z,2.0
2019-04-30T01:52:10.816Z,1.9
2019-04-30T01:53:13.099Z,1.7
2019-04-30T01:54:13.745Z,1.9
2019-04-30T01:55:10.855Z,1.7
2019-04-30T01:56:10.618Z,1.8
2019-04-30T01:57:10.997Z,2.0
2019-04-30T01:58:10.809Z,1.9
2019-04-30T01:59:10.407Z,2.2
2019-04-30T02:00:10.454Z,2.0
2019-04-30T02:01:10.850Z,2.1
2019-04-30T02:02:10.436Z,1.9
2019-04-30T02:03:11.182Z,2.6
2019-04-30T02:04:10.599Z,1.9
2019-04-30T02:05:10.492Z,2.2
2019-04-30T02:06:11.505Z,2.9
2019-04-30T02:07:10.444Z,2.5
2019-04-30T02:08:10.475Z,2.2
2019-04-30T02:09:10.883Z,2.8
2019-04-30T02:10:10.640Z,2.3
2019-04-30T02:11:10.942Z,2.0
2019-04-30T02:12:10.498Z,2.4
2019-04-30T02:13:10.420Z,2.6
2019-04-30T02:14:10.484Z,2.5
2019-04-30T02:15:10.871Z,2.4
2019-04-30T02:16:10.643Z,2.6
2019-04-30T02:17:10.445Z,2.3
2019-04-30T02:18:10.926Z,2.4
2019-04-30T02:19:10.897Z,2.5
2019-04-30T02:20:10.660Z,2.4
2019-04-30T02:21:11.437Z,2.6
2019-04-30T02:22:10.490Z,2.5
2019-04-30T02:23:10.481Z,2.5
2019-04-30T02:24:11.114Z,2.9
2019-04-30T02:25:10.494Z,3.0
2019-04-30T02:26:10.462Z,2.7
2019-04-30T02:27:10.453Z,3.2
2019-04-30T02:28:10.910Z,2.7
2019-04-30T02:29:10.936Z,3.1
2019-04-30T02:30:11.420Z,3.3
2019-04-30T02:31:10.579Z,3.0
2019-04-30T02:32:10.989Z,2.9
2019-04-30T02:33:10.675Z,2.8
2019-04-30T02:34:10.716Z,3.3
2019-04-30T02:35:10.934Z,3.7
2019-04-30T02:36:10.669Z,3.2
2019-04-30T02:37:10.513Z,3.0
2019-04-30T02:38:10.663Z,3.2
2019-04-30T02:39:11.411Z,3.2
2019-04-30T02:40:10.579Z,2.9
2019-04-30T02:41:10.565Z,3.0
2019-04-30T02:42:12.975Z,3.9
2019-04-30T02:43:10.974Z,2.9
2019-04-30T02:44:10.559Z,3.0
2019-04-30T02:45:10.939Z,2.8
2019-04-30T02:46:11.011Z,3.0
2019-04-30T02:47:10.526Z,3.1
2019-04-30T02:48:11.648Z,3.2
2019-04-30T02:49:10.791Z,2.6
2019-04-30T02:50:16.860Z,3.5
2019-04-30T02:51:10.857Z,3.0
2019-04-30T02:52:10.508Z,2.8
2019-04-30T02:53:10.962Z,3.6
2019-04-30T02:54:11.079Z,3.2
2019-04-30T02:55:10.749Z,2.8
2019-04-30T02:56:10.614Z,2.9
2019-04-30T02:57:11.444Z,4.7
2019-04-30T02:58:10.754Z,4.0
2019-04-30T02:59:10.591Z,4.5
2019-04-30T03:00:11.141Z,3.0
2019-04-30T03:01:10.565Z,3.7
2019-04-30T03:02:11.657Z,3.0
2019-04-30T03:03:10.539Z,2.9
2019-04-30T03:04:10.625Z,2.6
2019-04-30T03:05:13.390Z,3.0
2019-04-30T03:06:11.573Z,2.9
2019-04-30T03:07:10.574Z,2.7
2019-04-30T03:08:10.618Z,2.6
2019-04-30T03:09:11.103Z,2.7
2019-04-30T03:10:10.868Z,2.6
2019-04-30T03:11:11.003Z,2.7
2019-04-30T03:12:10.599Z,2.5
2019-04-30T03:13:10.589Z,2.7
2019-04-30T03:14:11.034Z,2.9
2019-04-30T03:15:10.607Z,2.6
2019-04-30T03:16:10.688Z,2.5
2019-04-30T03:17:10.847Z,2.9
2019-04-30T03:18:10.882Z,2.5
2019-04-30T03:19:10.848Z,2.5
2019-04-30T03:20:26.891Z,2.5
2019-04-30T03:21:10.732Z,2.6
2019-04-30T03:22:10.621Z,2.5
2019-04-30T03:23:10.644Z,2.9
2019-04-30T03:24:11.076Z,2.6
2019-04-30T03:25:10.787Z,2.7
2019-04-30T03:26:12.861Z,2.6
2019-04-30T03:27:10.731Z,2.7
2019-04-30T03:28:10.676Z,2.4
2019-04-30T03:29:11.698Z,3.2
2019-04-30T03:30:11.917Z,3.0
2019-04-30T03:31:12.240Z,3.1
2019-04-30T03:32:12.903Z,3.0
2019-04-30T03:33:12.513Z,3.2
2019-04-30T03:34:11.620Z,3.3
2019-04-30T03:35:12.577Z,4.4
2019-04-30T03:36:12.179Z,2.6
2019-04-30T03:37:10.796Z,3.3
2019-04-30T03:38:10.627Z,2.8
2019-04-30T03:39:11.221Z,2.6
2019-04-30T03:40:13.136Z,2.7
2019-04-30T03:41:10.668Z,2.7
2019-04-30T03:42:10.705Z,2.6
2019-04-30T03:43:11.069Z,2.8
2019-04-30T03:44:20.959Z,2.5
2019-04-30T03:45:10.793Z,3.0
2019-04-30T03:46:11.086Z,2.8
2019-04-30T03:47:11.108Z,2.8
2019-04-30T03:48:10.699Z,2.5
2019-04-30T03:49:13.200Z,3.7
2019-04-30T03:50:10.716Z,2.9
2019-04-30T03:51:10.854Z,3.1
2019-04-30T03:52:13.091Z,2.9
2019-04-30T03:53:11.027Z,2.8
2019-04-30T03:54:10.776Z,3.1
2019-04-30T03:55:10.858Z,2.8
2019-04-30T03:56:10.679Z,3.6
2019-04-30T03:57:10.984Z,3.4
2019-04-30T03:58:11.115Z,2.9
2019-04-30T03:59:11.213Z,3.4
2019-04-30T04:00:10.774Z,3.3
2019-04-30T04:01:10.900Z,3.2
2019-04-30T04:02:12.665Z,3.7
2019-04-30T04:03:10.665Z,3.6
2019-04-30T04:04:10.667Z,3.5
2019-04-30T04:05:10.759Z,3.4
2019-04-30T04:06:10.870Z,3.3
2019-04-30T04:07:10.716Z,3.5
2019-04-30T04:08:10.664Z,3.7
2019-04-30T04:09:10.842Z,3.2
2019-04-30T04:10:11.118Z,3.6
2019-04-30T04:11:10.732Z,3.6
2019-04-30T04:12:12.027Z,3.7
2019-04-30T04:13:11.149Z,4.0
2019-04-30T04:14:10.718Z,3.3
2019-04-30T04:15:11.233Z,3.4
2019-04-30T04:16:11.239Z,3.5
2019-04-30T04:17:10.681Z,3.1
2019-04-30T04:18:11.169Z,3.4
2019-04-30T04:19:11.194Z,3.1
2019-04-30T04:20:10.959Z,3.1
2019-04-30T04:21:16.314Z,3.2
2019-04-30T04:22:12.234Z,3.3
2019-04-30T04:23:10.846Z,3.3
2019-04-30T04:24:10.804Z,3.3
2019-04-30T04:25:13.286Z,3.0
2019-04-30T04:26:10.702Z,2.9
2019-04-30T04:27:11.134Z,3.2
2019-04-30T04:28:10.674Z,3.1
2019-04-30T04:29:12.367Z,3.4
2019-04-30T04:30:11.144Z,3.3
2019-04-30T04:31:10.737Z,3.0
2019-04-30T04:32:11.510Z,3.1
2019-04-30T04:33:11.262Z,3.1
2019-04-30T04:34:10.804Z,3.6
2019-04-30T04:35:12.822Z,4.3
2019-04-30T04:36:11.281Z,8.9
2019-04-30T04:37:11.216Z,7.9
2019-04-30T04:38:12.553Z,3.9
2019-04-30T04:39:10.960Z,4.9
2019-04-30T04:40:10.768Z,4.1
2019-04-30T04:41:11.045Z,4.6
2019-04-30T04:42:11.175Z,3.8
2019-04-30T04:43:10.851Z,4.1
2019-04-30T04:44:12.914Z,3.1
2019-04-30T04:45:11.333Z,4.4
2019-04-30T04:46:10.789Z,3.2
2019-04-30T04:47:11.970Z,2.9
2019-04-30T04:48:10.835Z,3.3
2019-04-30T04:49:10.799Z,4.8
2019-04-30T04:50:11.002Z,3.5
2019-04-30T04:51:27.193Z,4.8
2019-04-30T04:52:10.775Z,3.1
2019-04-30T04:53:11.549Z,3.9
2019-04-30T04:54:10.909Z,4.1
2019-04-30T04:55:11.116Z,2.7
2019-04-30T04:56:11.209Z,5.2
2019-04-30T04:57:16.887Z,4.7
2019-04-30T04:58:12.695Z,3.3
2019-04-30T04:59:11.050Z,5.5
2019-04-30T05:00:11.149Z,3.0
2019-04-30T05:01:11.681Z,4.5
2019-04-30T05:02:11.164Z,3.1
2019-04-30T05:03:10.811Z,3.8
2019-04-30T05:04:11.844Z,4.6
2019-04-30T05:05:11.422Z,3.8
2019-04-30T05:06:11.862Z,3.4
2019-04-30T05:07:10.781Z,2.9
2019-04-30T05:08:11.220Z,3.5
2019-04-30T05:09:10.756Z,3.1
2019-04-30T05:10:10.855Z,2.9
2019-04-30T05:11:11.330Z,3.6
2019-04-30T05:12:10.812Z,3.0
2019-04-30T05:13:10.968Z,3.1
2019-04-30T05:14:11.127Z,4.5
2019-04-30T05:15:11.049Z,3.7
2019-04-30T05:16:11.101Z,2.8
2019-04-30T05:17:11.061Z,3.4
2019-04-30T05:18:11.247Z,4.9
2019-04-30T05:19:10.793Z,3.0
2019-04-30T05:20:10.824Z,3.2
2019-04-30T05:21:10.825Z,4.7
2019-04-30T05:22:10.758Z,4.2
2019-04-30T05:23:10.793Z,3.3
2019-04-30T05:24:10.945Z,4.3
2019-04-30T05:25:10.855Z,2.9
2019-04-30T05:26:11.970Z,3.4
2019-04-30T05:27:10.994Z,4.8
2019-04-30T05:28:11.275Z,3.2
2019-04-30T05:29:11.035Z,5.7
2019-04-30T05:30:12.079Z,4.4
2019-04-30T05:31:10.943Z,4.6
2019-04-30T05:32:10.843Z,3.8
2019-04-30T05:33:11.319Z,3.5
2019-04-30T05:34:11.154Z,3.5
2019-04-30T05:35:10.856Z,3.7
2019-04-30T05:36:10.906Z,3.9
2019-04-30T05:37:11.272Z,3.2
2019-04-30T05:38:11.015Z,4.8
2019-04-30T05:39:10.835Z,4.4
2019-04-30T05:40:11.051Z,3.2
2019-04-30T05:41:10.821Z,3.7
2019-04-30T05:42:11.496Z,3.9
2019-04-30T05:43:11.472Z,3.9
2019-04-30T05:44:11.014Z,3.3
2019-04-30T05:45:10.871Z,4.0
2019-04-30T05:46:11.158Z,3.6
2019-04-30T05:47:10.828Z,4.3
2019-04-30T05:48:10.874Z,2.9
2019-04-30T05:49:11.432Z,3.2
2019-04-30T05:50:11.133Z,3.5
2019-04-30T05:51:11.415Z,4.2
2019-04-30T05:52:11.599Z,3.4
2019-04-30T05:53:10.908Z,3.2
2019-04-30T05:54:10.941Z,3.1
2019-04-30T05:55:11.361Z,3.8
2019-04-30T05:56:10.925Z,3.2
2019-04-30T05:57:10.844Z,4.1
2019-04-30T05:58:11.170Z,3.3
2019-04-30T05:59:10.893Z,3.0
2019-04-30T06:00:11.015Z,5.0
2019-04-30T06:01:10.980Z,3.2
2019-04-30T06:02:11.446Z,3.4
2019-04-30T06:03:11.314Z,3.2
2019-04-30T06:04:10.915Z,3.4
2019-04-30T06:05:11.346Z,3.5
2019-04-30T06:06:11.425Z,3.3
2019-04-30T06:07:11.363Z,3.0
2019-04-30T06:08:10.926Z,3.6
2019-04-30T06:09:14.515Z,3.8
2019-04-30T06:10:10.960Z,3.4
2019-04-30T06:11:10.902Z,3.8
2019-04-30T06:12:11.548Z,3.9
2019-04-30T06:13:10.900Z,3.4
2019-04-30T06:14:10.904Z,3.8
2019-04-30T06:15:11.739Z,3.9
2019-04-30T06:16:11.079Z,3.5
2019-04-30T06:17:11.012Z,4.0
2019-04-30T06:18:13.738Z,3.4
2019-04-30T06:19:11.085Z,3.9
2019-04-30T06:20:17.764Z,3.3
2019-04-30T06:21:11.201Z,3.4
2019-04-30T06:22:11.195Z,3.4
2019-04-30T06:23:11.345Z,3.2
2019-04-30T06:24:11.149Z,3.6
2019-04-30T06:25:11.080Z,4.4
2019-04-30T06:26:13.052Z,3.5
2019-04-30T06:27:11.075Z,3.3
2019-04-30T06:28:11.383Z,4.0
2019-04-30T06:29:10.915Z,3.2
2019-04-30T06:30:12.059Z,3.6
2019-04-30T06:31:11.200Z,3.9
2019-04-30T06:32:11.343Z,3.3
2019-04-30T06:33:11.672Z,3.1
2019-04-30T06:34:11.342Z,3.8
2019-04-30T06:35:12.067Z,4.4
2019-04-30T06:36:11.260Z,3.6
2019-04-30T06:37:11.323Z,3.3
2019-04-30T06:38:11.398Z,4.6
2019-04-30T06:39:10.986Z,3.3
2019-04-30T06:40:11.685Z,4.0
2019-04-30T06:41:10.891Z,3.6
2019-04-30T06:42:12.852Z,3.9
2019-04-30T06:43:11.155Z,4.2
2019-04-30T06:44:11.201Z,4.0
2019-04-30T06:45:11.397Z,3.2
2019-04-30T06:46:10.989Z,4.1
2019-04-30T06:47:11.640Z,3.5
2019-04-30T06:48:11.414Z,3.3
2019-04-30T06:49:10.988Z,3.7
2019-04-30T06:50:11.447Z,3.4
2019-04-30T06:51:11.499Z,4.2
2019-04-30T06:52:18.189Z,3.6
2019-04-30T06:53:11.236Z,3.5
2019-04-30T06:54:11.180Z,3.4
2019-04-30T06:55:11.014Z,4.0
2019-04-30T06:56:11.389Z,3.7
2019-04-30T06:57:12.130Z,4.0
2019-04-30T06:58:14.830Z,3.3
2019-04-30T06:59:11.049Z,3.8
2019-04-30T07:00:10.988Z,3.6
2019-04-30T07:01:11.399Z,3.5
2019-04-30T07:02:11.007Z,3.6
2019-04-30T07:03:11.225Z,3.5
2019-04-30T07:04:11.000Z,3.3
2019-04-30T07:05:11.000Z,3.6
2019-04-30T07:06:11.253Z,3.4
2019-04-30T07:07:14.210Z,3.7
2019-04-30T07:08:12.117Z,3.5
2019-04-30T07:09:11.030Z,3.7
2019-04-30T07:10:16.677Z,3.4
2019-04-30T07:11:11.378Z,3.5
2019-04-30T07:12:22.704Z,3.4
2019-04-30T07:13:10.967Z,3.9
2019-04-30T07:14:11.457Z,3.7
2019-04-30T07:15:13.569Z,3.6
2019-04-30T07:16:11.189Z,3.5
2019-04-30T07:17:11.040Z,3.4
2019-04-30T07:18:11.018Z,3.4
2019-04-30T07:19:11.073Z,3.4
2019-04-30T07:20:11.018Z,3.6
2019-04-30T07:21:11.125Z,3.9
2019-04-30T07:22:11.248Z,3.5
2019-04-30T07:23:11.068Z,3.7
2019-04-30T07:24:11.026Z,4.0
2019-04-30T07:25:11.035Z,3.4
2019-04-30T07:26:13.652Z,3.3
2019-04-30T07:27:11.452Z,3.7
2019-04-30T07:28:11.215Z,3.9
2019-04-30T07:29:11.489Z,4.2
2019-04-30T07:30:11.484Z,3.7
2019-04-30T07:31:14.046Z,3.9
2019-04-30T07:32:11.048Z,3.9
2019-04-30T07:33:11.211Z,3.5
2019-04-30T07:34:11.082Z,4.4
2019-04-30T07:35:11.548Z,3.7
2019-04-30T07:36:11.548Z,3.8
2019-04-30T07:37:16.977Z,3.8
2019-04-30T07:38:11.073Z,3.4
2019-04-30T07:39:11.283Z,4.4
2019-04-30T07:40:11.038Z,4.6
2019-04-30T07:41:11.332Z,4.0
2019-04-30T07:42:11.207Z,4.0
2019-04-30T07:43:11.266Z,4.4
2019-04-30T07:44:29.135Z,3.9
2019-04-30T07:45:11.735Z,4.2
2019-04-30T07:46:11.554Z,3.9
2019-04-30T07:47:11.643Z,4.0
2019-04-30T07:48:11.130Z,4.3
2019-04-30T07:49:11.385Z,4.0
2019-04-30T07:50:11.450Z,3.9
2019-04-30T07:51:12.360Z,4.0
2019-04-30T07:52:11.705Z,3.8
2019-04-30T07:53:11.867Z,4.5
2019-04-30T07:54:11.497Z,4.9
2019-04-30T07:55:11.569Z,4.0
2019-04-30T07:56:23.529Z,4.1
2019-04-30T07:57:11.318Z,4.3
2019-04-30T07:58:11.160Z,4.2
2019-04-30T07:59:11.265Z,4.1
2019-04-30T08:00:11.532Z,4.3
2019-04-30T08:01:11.206Z,4.3
2019-04-30T08:02:14.522Z,4.0
2019-04-30T08:03:11.804Z,4.1
2019-04-30T08:04:11.298Z,4.3
2019-04-30T08:05:11.188Z,4.3
2019-04-30T08:06:11.191Z,4.5
2019-04-30T08:07:12.009Z,4.5
2019-04-30T08:08:20.227Z,5.0
2019-04-30T08:09:11.237Z,4.4
2019-04-30T08:10:11.135Z,4.6
2019-04-30T08:11:22.747Z,4.9
2019-04-30T08:12:12.177Z,4.4
2019-04-30T08:13:14.574Z,4.4
2019-04-30T08:14:11.606Z,4.6
2019-04-30T08:15:11.986Z,4.4
2019-04-30T08:16:11.546Z,4.7
2019-04-30T08:17:11.400Z,4.4
2019-04-30T08:18:11.365Z,4.2
2019-04-30T08:19:11.221Z,4.2
2019-04-30T08:20:11.166Z,4.2
2019-04-30T08:21:12.384Z,4.9
2019-04-30T08:22:11.119Z,4.2
2019-04-30T08:23:15.517Z,4.4
2019-04-30T08:24:11.178Z,4.6
2019-04-30T08:25:11.715Z,4.5
2019-04-30T08:26:11.184Z,4.5
2019-04-30T08:27:11.230Z,4.4
2019-04-30T08:28:11.352Z,4.8
2019-04-30T08:29:11.697Z,4.4
2019-04-30T08:30:20.695Z,4.5
2019-04-30T08:31:11.655Z,4.8
2019-04-30T08:32:11.156Z,4.9
2019-04-30T08:33:11.936Z,4.2
2019-04-30T08:34:11.370Z,4.3
2019-04-30T08:35:11.649Z,4.5
2019-04-30T08:36:11.621Z,4.6
2019-04-30T08:37:17.229Z,4.6
2019-04-30T08:38:11.356Z,4.9
2019-04-30T08:39:11.158Z,4.7
2019-04-30T08:40:11.143Z,4.7
2019-04-30T08:41:11.440Z,5.0
2019-04-30T08:42:11.176Z,4.2
2019-04-30T08:43:11.195Z,4.5
2019-04-30T08:44:11.176Z,4.7
2019-04-30T08:45:11.250Z,4.5
2019-04-30T08:46:11.642Z,4.6
2019-04-30T08:47:11.136Z,4.2
2019-04-30T08:48:11.210Z,4.1
2019-04-30T08:49:11.355Z,4.3
2019-04-30T08:50:11.851Z,5.0
2019-04-30T08:51:13.380Z,4.5
2019-04-30T08:52:11.843Z,4.6
2019-04-30T08:53:11.905Z,4.5
2019-04-30T08:54:11.580Z,4.2
2019-04-30T08:55:16.142Z,4.2
2019-04-30T08:56:11.180Z,4.3
2019-04-30T08:57:11.193Z,4.7
2019-04-30T08:58:14.732Z,4.5
2019-04-30T08:59:11.427Z,5.2
2019-04-30T09:00:11.777Z,4.6
2019-04-30T09:01:11.637Z,4.8
2019-04-30T09:02:15.812Z,4.6
2019-04-30T09:03:11.277Z,4.6
2019-04-30T09:04:11.235Z,4.4
2019-04-30T09:05:11.197Z,4.5
2019-04-30T09:06:11.686Z,4.4
2019-04-30T09:07:11.364Z,4.7
2019-04-30T09:08:11.247Z,4.5
2019-04-30T09:09:11.435Z,4.6
2019-04-30T09:10:11.403Z,5.1
2019-04-30T09:11:21.495Z,4.7
2019-04-30T09:12:11.660Z,4.6
2019-04-30T09:13:11.643Z,4.6
2019-04-30T09:14:11.271Z,4.7
2019-04-30T09:15:11.618Z,4.4
2019-04-30T09:16:11.661Z,5.0
2019-04-30T09:17:11.246Z,4.5
2019-04-30T09:18:12.558Z,4.2
2019-04-30T09:19:11.749Z,4.6
2019-04-30T09:20:11.243Z,4.3
2019-04-30T09:21:11.297Z,4.5
2019-04-30T09:22:14.389Z,4.5
2019-04-30T09:23:11.380Z,4.8
2019-04-30T09:24:11.477Z,4.7
2019-04-30T09:25:11.305Z,4.5
2019-04-30T09:26:11.253Z,4.7
2019-04-30T09:27:11.257Z,4.7
2019-04-30T09:28:11.303Z,4.7
2019-04-30T09:29:11.492Z,4.7
2019-04-30T09:30:11.237Z,5.9
2019-04-30T09:31:11.453Z,4.7
2019-04-30T09:32:13.334Z,5.0
2019-04-30T09:33:11.302Z,4.9
2019-04-30T09:34:15.233Z,4.7
2019-04-30T09:35:11.285Z,4.9
2019-04-30T09:36:11.359Z,4.5
2019-04-30T09:37:11.237Z,4.5
2019-04-30T09:38:11.289Z,4.6
2019-04-30T09:39:11.272Z,4.5
2019-04-30T09:40:16.183Z,4.6
2019-04-30T09:41:11.520Z,4.6
2019-04-30T09:42:11.307Z,4.8
2019-04-30T09:43:11.357Z,4.6
2019-04-30T09:44:11.280Z,4.3
2019-04-30T09:45:11.684Z,5.1
2019-04-30T09:46:17.906Z,4.7
2019-04-30T09:47:11.294Z,4.6
2019-04-30T09:48:11.315Z,4.5
2019-04-30T09:49:11.287Z,4.6
2019-04-30T09:50:11.484Z,4.4
2019-04-30T09:51:11.797Z,4.7
2019-04-30T09:52:11.502Z,4.7
2019-04-30T09:53:11.796Z,4.5
2019-04-30T09:54:12.750Z,4.7
2019-04-30T09:55:11.974Z,4.9
2019-04-30T09:56:11.327Z,4.6
2019-04-30T09:57:11.551Z,4.7
2019-04-30T09:58:14.883Z,4.9
2019-04-30T09:59:11.559Z,4.8
2019-04-30T10:00:11.485Z,4.6
2019-04-30T10:01:11.327Z,4.5
2019-04-30T10:02:11.779Z,4.8
2019-04-30T10:03:12.184Z,4.7
2019-04-30T10:04:11.595Z,5.2
2019-04-30T10:05:11.945Z,5.0
2019-04-30T10:06:11.591Z,4.6
2019-04-30T10:07:11.721Z,4.4
2019-04-30T10:08:11.344Z,5.0
2019-04-30T10:09:11.331Z,4.8
2019-04-30T10:10:11.512Z,4.8
2019-04-30T10:11:11.723Z,4.5
2019-04-30T10:12:11.475Z,4.4
2019-04-30T10:13:11.298Z,4.9
2019-04-30T10:14:11.464Z,4.7
2019-04-30T10:15:11.450Z,4.7
2019-04-30T10:16:11.548Z,4.6
2019-04-30T10:17:11.394Z,4.8
2019-04-30T10:18:11.335Z,5.1
2019-04-30T10:19:11.423Z,4.7
2019-04-30T10:20:11.776Z,4.6
2019-04-30T10:21:11.344Z,4.5
2019-04-30T10:22:11.527Z,4.5
2019-04-30T10:23:11.338Z,4.7
2019-04-30T10:24:14.736Z,4.8
2019-04-30T10:25:11.543Z,4.9
2019-04-30T10:26:11.315Z,4.5
2019-04-30T10:27:12.927Z,4.5
2019-04-30T10:28:11.449Z,4.5
2019-04-30T10:29:11.367Z,4.9
2019-04-30T10:30:11.367Z,4.8
2019-04-30T10:31:11.345Z,4.5
2019-04-30T10:32:11.550Z,4.6
2019-04-30T10:33:12.244Z,4.5
2019-04-30T10:34:11.337Z,4.8
2019-04-30T10:35:11.787Z,4.9
2019-04-30T10:36:11.598Z,4.6
2019-04-30T10:37:11.384Z,4.5
2019-04-30T10:38:11.580Z,4.5
2019-04-30T10:39:11.570Z,5.0
2019-04-30T10:40:11.914Z,4.7
2019-04-30T10:41:11.558Z,4.5
2019-04-30T10:42:11.895Z,4.4
2019-04-30T10:43:11.459Z,4.6
2019-04-30T10:44:11.375Z,4.6
2019-04-30T10:45:11.591Z,4.2
2019-04-30T10:46:11.395Z,4.9
2019-04-30T10:47:11.483Z,5.1
2019-04-30T10:48:11.589Z,4.8
2019-04-30T10:49:11.409Z,4.5
2019-04-30T10:50:11.905Z,5.0
2019-04-30T10:51:11.420Z,4.6
2019-04-30T10:52:11.816Z,4.6
2019-04-30T10:53:12.430Z,4.7
2019-04-30T10:54:23.030Z,4.4
2019-04-30T10:55:11.915Z,4.9
2019-04-30T10:56:11.590Z,4.3
2019-04-30T10:57:11.628Z,4.9
2019-04-30T10:58:11.806Z,4.6
2019-04-30T10:59:11.395Z,4.9
2019-04-30T11:00:11.831Z,4.8
2019-04-30T11:01:11.414Z,4.8
2019-04-30T11:02:11.376Z,4.8
2019-04-30T11:03:17.258Z,4.6
2019-04-30T11:04:11.847Z,4.7
2019-04-30T11:05:11.410Z,4.6
2019-04-30T11:06:11.487Z,4.3
2019-04-30T11:07:11.417Z,4.6
2019-04-30T11:08:11.545Z,4.5
2019-04-30T11:09:11.462Z,4.4
2019-04-30T11:10:11.427Z,4.3
2019-04-30T11:11:11.417Z,4.6
2019-04-30T11:12:11.485Z,4.7
2019-04-30T11:13:11.612Z,4.3
2019-04-30T11:14:11.437Z,4.6
2019-04-30T11:15:11.607Z,4.5
2019-04-30T11:16:15.146Z,4.8
2019-04-30T11:17:11.633Z,4.4
2019-04-30T11:18:11.626Z,4.5
2019-04-30T11:19:11.658Z,4.5
2019-04-30T11:20:12.091Z,4.5
2019-04-30T11:21:12.030Z,4.8
2019-04-30T11:22:12.234Z,4.2
2019-04-30T11:23:14.068Z,4.3
2019-04-30T11:24:11.662Z,4.6
2019-04-30T11:25:11.777Z,4.6
2019-04-30T11:26:12.396Z,5.1
2019-04-30T11:27:12.670Z,4.3
2019-04-30T11:28:11.891Z,5.0
2019-04-30T11:29:11.640Z,4.6
2019-04-30T11:30:18.420Z,4.3
2019-04-30T11:31:11.866Z,4.5
2019-04-30T11:32:12.039Z,4.2
2019-04-30T11:33:11.763Z,5.0
2019-04-30T11:34:11.928Z,4.6
2019-04-30T11:35:11.625Z,4.3
2019-04-30T11:36:11.666Z,4.2
2019-04-30T11:37:11.472Z,4.5
2019-04-30T11:38:11.663Z,4.6
2019-04-30T11:39:11.898Z,4.5
2019-04-30T11:40:11.469Z,4.7
2019-04-30T11:41:11.501Z,4.6
2019-04-30T11:42:11.472Z,4.6
2019-04-30T11:43:11.933Z,4.7
2019-04-30T11:44:11.515Z,4.5
2019-04-30T11:45:12.001Z,4.4
2019-04-30T11:46:11.524Z,4.5
2019-04-30T11:47:12.501Z,4.6
2019-04-30T11:48:11.943Z,4.7
2019-04-30T11:49:11.481Z,4.6
2019-04-30T11:50:11.499Z,4.4
2019-04-30T11:51:11.759Z,4.6
2019-04-30T11:52:11.963Z,4.8
2019-04-30T11:53:24.115Z,4.3
2019-04-30T11:54:11.704Z,4.4
2019-04-30T11:55:12.043Z,4.5
2019-04-30T11:56:11.938Z,5.4
2019-04-30T11:57:11.924Z,4.9
2019-04-30T11:58:21.127Z,4.9
2019-04-30T11:59:11.503Z,4.5
2019-04-30T12:00:11.548Z,4.7
2019-04-30T12:01:11.700Z,5.0
2019-04-30T12:02:11.719Z,4.8
2019-04-30T12:03:11.522Z,4.7
2019-04-30T12:04:11.538Z,4.6
2019-04-30T12:05:11.674Z,4.5
2019-04-30T12:06:11.768Z,4.9
2019-04-30T12:07:11.539Z,4.8
2019-04-30T12:08:11.808Z,4.7
2019-04-30T12:09:11.943Z,4.7
2019-04-30T12:10:11.785Z,4.6
2019-04-30T12:11:11.534Z,4.4
2019-04-30T12:12:11.576Z,4.8
2019-04-30T12:13:11.518Z,4.5
2019-04-30T12:14:12.100Z,5.0
2019-04-30T12:15:11.550Z,4.7
2019-04-30T12:16:12.025Z,5.0
2019-04-30T12:17:11.950Z,4.5
2019-04-30T12:18:11.710Z,4.1
2019-04-30T12:19:11.971Z,5.2
2019-04-30T12:20:11.788Z,4.3
2019-04-30T12:21:11.559Z,5.0
2019-04-30T12:22:11.630Z,4.4
2019-04-30T12:23:11.977Z,5.1
2019-04-30T12:24:11.966Z,4.4
2019-04-30T12:25:11.763Z,4.5
2019-04-30T12:26:11.616Z,4.7
2019-04-30T12:27:11.750Z,4.6
2019-04-30T12:28:11.822Z,4.1
2019-04-30T12:29:11.789Z,4.3
2019-04-30T12:30:11.739Z,4.2
2019-04-30T12:31:11.650Z,4.4
2019-04-30T12:32:11.996Z,4.6
2019-04-30T12:33:11.619Z,4.5
2019-04-30T12:34:11.836Z,4.3
2019-04-30T12:35:11.749Z,4.6
2019-04-30T12:36:11.642Z,4.4
2019-04-30T12:37:11.762Z,4.7
2019-04-30T12:38:11.546Z,4.5
2019-04-30T12:39:12.042Z,4.8
2019-04-30T12:40:25.564Z,5.1
2019-04-30T12:41:12.069Z,4.5
2019-04-30T12:42:12.001Z,4.6
2019-04-30T12:43:12.021Z,4.3
2019-04-30T12:44:12.013Z,4.6
2019-04-30T12:45:11.605Z,4.2
2019-04-30T12:46:11.623Z,4.6
2019-04-30T12:47:11.775Z,4.8
2019-04-30T12:48:11.779Z,4.8
2019-04-30T12:49:12.059Z,4.4
2019-04-30T12:50:11.677Z,4.6
2019-04-30T12:51:11.818Z,4.6
2019-04-30T12:52:11.810Z,4.4
2019-04-30T12:53:11.733Z,4.4
2019-04-30T12:54:11.567Z,4.8
2019-04-30T12:55:15.252Z,4.3
2019-04-30T12:56:11.730Z,4.6
2019-04-30T12:57:11.688Z,4.4
2019-04-30T12:58:11.643Z,4.7
2019-04-30T12:59:12.083Z,4.5
2019-04-30T13:00:11.826Z,4.3
2019-04-30T13:01:12.051Z,4.7
2019-04-30T13:02:11.768Z,4.2
2019-04-30T13:03:11.790Z,4.3
2019-04-30T13:04:11.864Z,4.5
2019-04-30T13:05:12.070Z,4.9
2019-04-30T13:06:12.613Z,5.0
2019-04-30T13:07:12.479Z,4.6
2019-04-30T13:08:12.167Z,4.8
2019-04-30T13:09:12.494Z,4.4
2019-04-30T13:10:12.209Z,4.6
2019-04-30T13:11:12.728Z,4.4
2019-04-30T13:12:12.664Z,4.6
2019-04-30T13:13:11.955Z,4.4
2019-04-30T13:14:12.332Z,4.4
2019-04-30T13:15:12.093Z,4.4
2019-04-30T13:16:11.669Z,4.6
2019-04-30T13:17:12.050Z,4.6
2019-04-30T13:18:12.098Z,5.1
2019-04-30T13:19:12.120Z,4.7
2019-04-30T13:20:18.052Z,4.7
2019-04-30T13:21:12.120Z,4.4
2019-04-30T13:22:11.887Z,4.2
2019-04-30T13:23:11.849Z,4.4
2019-04-30T13:24:12.202Z,5.0
2019-04-30T13:25:11.877Z,4.4
2019-04-30T13:26:11.669Z,4.7
2019-04-30T13:27:11.935Z,4.7
2019-04-30T13:28:12.113Z,4.6
2019-04-30T13:29:11.675Z,4.5
2019-04-30T13:30:11.867Z,4.6
2019-04-30T13:31:11.709Z,4.6
2019-04-30T13:32:11.922Z,4.4
2019-04-30T13:33:11.735Z,4.2
2019-04-30T13:34:11.663Z,4.5
2019-04-30T13:35:11.907Z,4.2
2019-04-30T13:36:11.675Z,4.5
2019-04-30T13:37:11.697Z,4.2
2019-04-30T13:38:12.102Z,4.1
2019-04-30T13:39:12.148Z,3.9
2019-04-30T13:40:11.920Z,4.1
2019-04-30T13:41:12.266Z,4.2
2019-04-30T13:42:15.934Z,4.1
2019-04-30T13:43:11.703Z,3.8
2019-04-30T13:44:12.228Z,3.8
2019-04-30T13:45:11.718Z,3.6
2019-04-30T13:46:11.717Z,3.7
2019-04-30T13:47:11.775Z,3.5
2019-04-30T13:48:11.918Z,3.6